createdAt,value
2022-09-15T00:00:30.554Z,38.10
2022-09-15T00:01:30.586Z,37.50
2022-09-15T00:02:30.631Z,38.40
2022-09-15T00:03:30.502Z,38.30
2022-09-15T00:04:30.503Z,40.20
2022-09-15T00:05:30.484Z,40.00
2022-09-15T00:06:30.485Z,39.80
2022-09-15T00:07:30.474Z,40.90
2022-09-15T00:08:30.447Z,40.20
2022-09-15T00:09:30.431Z,39.90
2022-09-15T00:10:30.413Z,40.40
2022-09-15T00:11:30.398Z,42.00
2022-09-15T00:12:30.422Z,39.60
2022-09-15T00:13:30.379Z,38.30
2022-09-15T00:14:30.368Z,38.30
2022-09-15T00:15:30.346Z,37.10
2022-09-15T00:16:30.379Z,37.60
2022-09-15T00:17:30.344Z,38.60
2022-09-15T00:18:30.312Z,37.40
2022-09-15T00:19:30.288Z,37.60
2022-09-15T00:20:30.284Z,41.60
2022-09-15T00:21:30.271Z,39.80
2022-09-15T00:22:30.290Z,39.70
2022-09-15T00:23:30.239Z,40.00
2022-09-15T00:24:30.226Z,41.90
2022-09-15T00:25:30.206Z,41.20
2022-09-15T00:26:30.198Z,42.80
2022-09-15T00:27:30.206Z,41.90
2022-09-15T00:28:30.174Z,42.20
2022-09-15T00:29:30.158Z,41.30
2022-09-15T00:30:30.187Z,41.00
2022-09-15T00:31:30.127Z,43.80
2022-09-15T00:32:30.146Z,43.10
2022-09-15T00:33:30.097Z,43.60
2022-09-15T00:34:30.087Z,44.40
2022-09-15T00:35:30.079Z,43.20
2022-09-15T00:36:30.067Z,44.70
2022-09-15T00:37:30.078Z,44.20
2022-09-15T00:38:30.038Z,45.80
2022-09-15T00:39:30.023Z,46.10
2022-09-15T00:40:30.141Z,45.50
2022-09-15T00:41:29.989Z,45.60
2022-09-15T00:42:30.009Z,46.80
2022-09-15T00:43:29.968Z,45.50
2022-09-15T00:44:29.957Z,46.50
2022-09-15T00:45:29.991Z,45.90
2022-09-15T00:46:29.930Z,45.00
2022-09-15T00:47:29.930Z,44.20
2022-09-15T00:48:30.040Z,45.00
2022-09-15T00:49:29.888Z,47.00
2022-09-15T00:50:29.878Z,45.40
2022-09-15T00:51:29.858Z,47.00
2022-09-15T00:52:29.871Z,45.50
2022-09-15T00:53:29.849Z,46.00
2022-09-15T00:54:29.821Z,45.50
2022-09-15T00:55:29.811Z,47.20
2022-09-15T00:56:29.801Z,45.80
2022-09-15T00:57:29.812Z,46.50
2022-09-15T00:58:29.761Z,46.80
2022-09-15T00:59:29.741Z,47.00
2022-09-15T01:00:29.742Z,46.80
2022-09-15T01:01:29.808Z,46.70
2022-09-15T01:02:29.817Z,47.70
2022-09-15T01:03:29.704Z,46.50
2022-09-15T01:04:29.684Z,49.60
2022-09-15T01:05:29.662Z,48.50
2022-09-15T01:06:29.653Z,47.80
2022-09-15T01:07:29.666Z,48.70
2022-09-15T01:08:29.661Z,48.50
2022-09-15T01:09:29.615Z,49.60
2022-09-15T01:10:29.605Z,49.10
2022-09-15T01:11:29.583Z,54.10
2022-09-15T01:12:29.605Z,51.30
2022-09-15T01:13:29.563Z,54.50
2022-09-15T01:14:29.551Z,51.10
2022-09-15T01:15:29.532Z,50.30
2022-09-15T01:16:29.595Z,51.50
2022-09-15T01:17:29.525Z,50.10
2022-09-15T01:18:29.495Z,50.90
2022-09-15T01:19:29.476Z,50.10
2022-09-15T01:20:29.506Z,49.80
2022-09-15T01:21:29.445Z,51.20
2022-09-15T01:22:29.463Z,51.50
2022-09-15T01:23:29.423Z,51.50
2022-09-15T01:24:29.416Z,49.30
2022-09-15T01:25:29.397Z,49.70
2022-09-15T01:26:29.384Z,47.70
2022-09-15T01:27:42.278Z,50.10
2022-09-15T01:28:30.369Z,47.10
2022-09-15T01:29:29.371Z,49.10
2022-09-15T01:30:29.341Z,49.10
2022-09-15T01:31:29.345Z,48.80
2022-09-15T01:32:29.327Z,49.20
2022-09-15T01:33:29.276Z,49.10
2022-09-15T01:34:29.277Z,50.00
2022-09-15T01:35:29.258Z,49.40
2022-09-15T01:36:29.254Z,49.90
2022-09-15T01:37:29.258Z,49.10
2022-09-15T01:38:29.218Z,48.70
2022-09-15T01:39:29.216Z,48.60
2022-09-15T01:40:29.246Z,48.50
2022-09-15T01:41:29.178Z,50.50
2022-09-15T01:42:29.188Z,50.60
2022-09-15T01:43:29.159Z,50.50
2022-09-15T01:44:29.139Z,49.20
2022-09-15T01:45:29.262Z,50.40
2022-09-15T01:46:29.148Z,49.10
2022-09-15T01:47:29.099Z,48.50
2022-09-15T01:48:29.081Z,48.90
2022-09-15T01:49:29.076Z,50.60
2022-09-15T01:50:29.056Z,50.70
2022-09-15T01:51:29.060Z,48.10
2022-09-15T01:52:29.051Z,49.40
2022-09-15T01:53:29.020Z,50.40
2022-09-15T01:54:29.000Z,52.40
2022-09-15T01:55:29.005Z,51.10
2022-09-15T01:56:28.980Z,53.60
2022-09-15T01:57:28.990Z,53.80
2022-09-15T01:58:28.940Z,52.20
2022-09-15T01:59:28.972Z,52.90
2022-09-15T02:00:28.931Z,50.40
2022-09-15T02:01:28.932Z,50.20
2022-09-15T02:02:28.988Z,52.10
2022-09-15T02:03:28.880Z,50.80
2022-09-15T02:04:28.861Z,50.70
2022-09-15T02:05:28.852Z,49.20
2022-09-15T02:06:28.863Z,51.30
2022-09-15T02:07:28.856Z,55.50
2022-09-15T02:08:28.812Z,54.20
2022-09-15T02:09:28.801Z,55.00
2022-09-15T02:10:28.781Z,51.80
2022-09-15T02:11:28.764Z,50.90
2022-09-15T02:12:28.784Z,53.00
2022-09-15T02:13:28.741Z,52.30
2022-09-15T02:14:28.723Z,50.10
2022-09-15T02:15:28.725Z,52.20
2022-09-15T02:16:28.785Z,51.60
2022-09-15T02:17:28.714Z,54.10
2022-09-15T02:18:28.674Z,53.70
2022-09-15T02:19:28.662Z,53.30
2022-09-15T02:20:28.653Z,55.50
2022-09-15T02:21:28.634Z,56.00
2022-09-15T02:22:28.634Z,53.80
2022-09-15T02:23:28.606Z,57.10
2022-09-15T02:24:28.586Z,53.50
2022-09-15T02:25:28.575Z,53.70
2022-09-15T02:26:28.557Z,54.90
2022-09-15T02:27:28.574Z,54.40
2022-09-15T02:28:28.533Z,55.60
2022-09-15T02:29:28.526Z,55.30
2022-09-15T02:30:28.516Z,55.80
2022-09-15T02:31:28.596Z,53.40
2022-09-15T02:32:28.486Z,52.20
2022-09-15T02:33:28.465Z,52.20
2022-09-15T02:34:28.445Z,53.30
2022-09-15T02:35:28.435Z,54.50
2022-09-15T02:36:28.416Z,55.50
2022-09-15T02:37:28.442Z,54.10
2022-09-15T02:38:28.396Z,53.30
2022-09-15T02:39:28.387Z,53.90
2022-09-15T02:40:28.452Z,53.00
2022-09-15T02:41:28.357Z,57.10
2022-09-15T02:42:28.378Z,54.80
2022-09-15T02:43:28.331Z,53.50
2022-09-15T02:44:28.314Z,53.30
2022-09-15T02:45:28.350Z,52.90
2022-09-15T02:46:28.286Z,53.40
2022-09-15T02:47:28.343Z,54.20
2022-09-15T02:48:28.257Z,54.10
2022-09-15T02:49:28.256Z,55.60
2022-09-15T02:50:28.228Z,57.70
2022-09-15T02:51:28.217Z,58.20
2022-09-15T02:52:28.260Z,56.60
2022-09-15T02:53:28.199Z,59.60
2022-09-15T02:54:28.182Z,55.80
2022-09-15T02:55:28.180Z,56.10
2022-09-15T02:56:28.149Z,60.00
2022-09-15T02:57:28.167Z,55.40
2022-09-15T02:58:28.142Z,53.90
2022-09-15T02:59:28.110Z,52.60
2022-09-15T03:00:28.089Z,53.50
2022-09-15T03:01:28.134Z,51.40
2022-09-15T03:02:28.156Z,52.00
2022-09-15T03:03:28.061Z,53.80
2022-09-15T03:04:28.040Z,54.50
2022-09-15T03:05:28.030Z,52.80
2022-09-15T03:06:28.029Z,50.50
2022-09-15T03:07:28.032Z,57.80
2022-09-15T03:08:27.980Z,55.00
2022-09-15T03:09:27.980Z,50.80
2022-09-15T03:10:27.961Z,52.00
2022-09-15T03:11:27.952Z,50.80
2022-09-15T03:12:27.951Z,50.00
2022-09-15T03:13:27.928Z,51.40
2022-09-15T03:14:27.911Z,49.50
2022-09-15T03:15:27.891Z,55.40
2022-09-15T03:16:27.952Z,80.60
2022-09-15T03:17:27.891Z,117.40
2022-09-15T03:18:27.850Z,47.90
2022-09-15T03:19:27.842Z,47.00
2022-09-15T03:20:27.822Z,46.00
2022-09-15T03:21:27.813Z,122.00
2022-09-15T03:22:27.826Z,58.50
2022-09-15T03:23:27.792Z,60.20
2022-09-15T03:24:27.786Z,51.80
2022-09-15T03:25:27.762Z,53.20
2022-09-15T03:26:27.750Z,50.20
2022-09-15T03:27:27.753Z,46.90
2022-09-15T03:28:27.738Z,46.10
2022-09-15T03:29:27.757Z,45.20
2022-09-15T03:30:27.685Z,45.30
2022-09-15T03:31:27.727Z,45.30
2022-09-15T03:32:27.697Z,45.40
2022-09-15T03:33:27.650Z,46.10
2022-09-15T03:34:27.635Z,44.80
2022-09-15T03:35:27.624Z,44.70
2022-09-15T03:36:27.606Z,45.50
2022-09-15T03:37:27.635Z,43.90
2022-09-15T03:38:27.576Z,43.60
2022-09-15T03:39:27.575Z,43.30
2022-09-15T03:40:27.648Z,44.30
2022-09-15T03:41:27.544Z,42.60
2022-09-15T03:42:27.558Z,42.70
2022-09-15T03:43:27.518Z,42.30
2022-09-15T03:44:27.496Z,43.00
2022-09-15T03:45:27.554Z,43.00
2022-09-15T03:46:27.467Z,44.30
2022-09-15T03:47:27.485Z,43.70
2022-09-15T03:48:27.436Z,47.30
2022-09-15T03:49:27.447Z,52.90
2022-09-15T03:50:27.426Z,60.10
2022-09-15T03:51:27.406Z,66.70
2022-09-15T03:52:27.416Z,78.80
2022-09-15T03:53:27.377Z,46.20
2022-09-15T03:54:27.368Z,64.60
2022-09-15T03:55:27.358Z,44.30
2022-09-15T03:56:27.349Z,46.90
2022-09-15T03:57:27.348Z,44.00
2022-09-15T03:58:30.660Z,42.80
2022-09-15T03:59:27.300Z,41.20
2022-09-15T04:00:27.328Z,42.70
2022-09-15T04:01:27.282Z,41.60
2022-09-15T04:02:27.394Z,41.20
2022-09-15T04:03:27.247Z,41.50
2022-09-15T04:04:27.257Z,41.60
2022-09-15T04:05:27.222Z,41.20
2022-09-15T04:06:27.200Z,41.60
2022-09-15T04:07:27.220Z,42.40
2022-09-15T04:08:27.172Z,40.80
2022-09-15T04:09:27.180Z,41.60
2022-09-15T04:10:27.183Z,42.20
2022-09-15T04:11:27.141Z,40.80
2022-09-15T04:12:27.142Z,40.80
2022-09-15T04:13:28.783Z,42.60
2022-09-15T04:14:27.091Z,42.70
2022-09-15T04:15:27.081Z,41.80
2022-09-15T04:16:27.164Z,41.80
2022-09-15T04:17:27.087Z,40.50
2022-09-15T04:18:27.031Z,41.20
2022-09-15T04:19:27.032Z,41.40
2022-09-15T04:20:27.013Z,41.20
2022-09-15T04:21:27.002Z,41.80
2022-09-15T04:22:27.001Z,41.00
2022-09-15T04:23:26.990Z,40.90
2022-09-15T04:24:26.951Z,39.00
2022-09-15T04:25:26.942Z,40.50
2022-09-15T04:26:26.993Z,40.80
2022-09-15T04:27:26.945Z,39.40
2022-09-15T04:28:26.904Z,42.70
2022-09-15T04:29:26.894Z,41.00
2022-09-15T04:30:26.874Z,41.50
2022-09-15T04:31:26.906Z,41.10
2022-09-15T04:32:26.870Z,42.20
2022-09-15T04:33:26.843Z,42.50
2022-09-15T04:34:26.822Z,40.70
2022-09-15T04:35:26.805Z,39.30
2022-09-15T04:36:26.794Z,38.20
2022-09-15T04:37:26.806Z,38.20
2022-09-15T04:38:26.768Z,38.40
2022-09-15T04:39:26.755Z,39.60
2022-09-15T04:40:26.795Z,38.50
2022-09-15T04:41:26.743Z,37.70
2022-09-15T04:42:26.734Z,38.00
2022-09-15T04:43:26.703Z,39.50
2022-09-15T04:44:26.697Z,38.60
2022-09-15T04:45:26.676Z,38.30
2022-09-15T04:46:26.712Z,38.00
2022-09-15T04:47:26.704Z,38.60
2022-09-15T04:48:26.635Z,39.30
2022-09-15T04:49:26.616Z,37.60
2022-09-15T04:50:26.609Z,39.30
2022-09-15T04:51:26.588Z,38.50
2022-09-15T04:52:26.604Z,38.10
2022-09-15T04:53:26.566Z,38.20
2022-09-15T04:54:26.546Z,38.30
2022-09-15T04:55:26.538Z,39.20
2022-09-15T04:56:26.520Z,38.10
2022-09-15T04:57:26.546Z,40.00
2022-09-15T04:58:26.560Z,40.80
2022-09-15T04:59:26.490Z,39.60
2022-09-15T05:00:26.466Z,40.80
2022-09-15T05:01:26.502Z,39.50
2022-09-15T05:02:26.511Z,40.60
2022-09-15T05:03:26.428Z,38.00
2022-09-15T05:04:26.416Z,37.20
2022-09-15T05:05:26.409Z,39.70
2022-09-15T05:06:26.398Z,39.90
2022-09-15T05:07:26.398Z,38.50
2022-09-15T05:08:26.398Z,38.70
2022-09-15T05:09:26.446Z,39.30
2022-09-15T05:10:26.329Z,38.90
2022-09-15T05:11:26.340Z,39.80
2022-09-15T05:12:26.380Z,37.80
2022-09-15T05:13:26.307Z,37.70
2022-09-15T05:14:26.280Z,39.20
2022-09-15T05:15:26.270Z,39.30
2022-09-15T05:16:26.334Z,38.10
2022-09-15T05:17:26.921Z,38.20
2022-09-15T05:18:26.279Z,39.40
2022-09-15T05:19:26.212Z,40.30
2022-09-15T05:20:26.191Z,38.10
2022-09-15T05:21:26.181Z,38.00
2022-09-15T05:22:26.190Z,39.50
2022-09-15T05:23:26.160Z,38.00
2022-09-15T05:24:26.144Z,37.40
2022-09-15T05:25:26.142Z,38.10
2022-09-15T05:26:26.111Z,38.30
2022-09-15T05:27:26.142Z,36.40
2022-09-15T05:28:26.090Z,37.90
2022-09-15T05:29:26.224Z,35.10
2022-09-15T05:30:38.659Z,35.10
2022-09-15T05:31:27.218Z,37.60
2022-09-15T05:32:26.054Z,37.80
2022-09-15T05:33:26.033Z,36.50
2022-09-15T05:34:26.004Z,36.40
2022-09-15T05:35:25.995Z,38.90
2022-09-15T05:36:25.979Z,37.40
2022-09-15T05:37:25.993Z,38.10
2022-09-15T05:38:25.947Z,34.70
2022-09-15T05:39:25.953Z,38.90
2022-09-15T05:40:25.938Z,39.30
2022-09-15T05:41:25.913Z,41.20
2022-09-15T05:42:25.935Z,38.90
2022-09-15T05:43:25.885Z,38.40
2022-09-15T05:44:25.870Z,38.80
2022-09-15T05:45:25.855Z,38.40
2022-09-15T05:46:25.875Z,37.30
2022-09-15T05:47:25.877Z,38.70
2022-09-15T05:48:25.815Z,36.60
2022-09-15T05:49:25.802Z,37.00
2022-09-15T05:50:25.797Z,37.00
2022-09-15T05:51:25.775Z,36.80
2022-09-15T05:52:25.783Z,36.40
2022-09-15T05:53:25.749Z,35.10
2022-09-15T05:54:25.729Z,34.60
2022-09-15T05:55:25.728Z,35.00
2022-09-15T05:56:25.696Z,35.40
2022-09-15T05:57:25.716Z,34.40
2022-09-15T05:58:25.677Z,34.30
2022-09-15T05:59:25.667Z,34.80
2022-09-15T06:00:25.658Z,35.00
2022-09-15T06:01:25.722Z,35.70
2022-09-15T06:02:25.678Z,34.50
2022-09-15T06:03:30.667Z,34.10
2022-09-15T06:04:26.607Z,33.00
2022-09-15T06:05:25.578Z,33.90
2022-09-15T06:06:25.570Z,33.30
2022-09-15T06:07:25.578Z,33.70
2022-09-15T06:08:25.548Z,33.50
2022-09-15T06:09:25.528Z,34.10
2022-09-15T06:10:25.519Z,35.10
2022-09-15T06:11:25.499Z,33.40
2022-09-15T06:12:25.528Z,33.80
2022-09-15T06:13:25.470Z,33.20
2022-09-15T06:14:25.467Z,31.60
2022-09-15T06:15:25.440Z,33.10
2022-09-15T06:16:25.488Z,33.00
2022-09-15T06:17:25.440Z,31.50
2022-09-15T06:18:25.418Z,30.80
2022-09-15T06:19:25.391Z,30.70
2022-09-15T06:20:25.414Z,29.80
2022-09-15T06:21:25.361Z,29.10
2022-09-15T06:22:25.382Z,28.90
2022-09-15T06:23:25.331Z,30.20
2022-09-15T06:24:25.331Z,29.00
2022-09-15T06:25:25.310Z,29.40
2022-09-15T06:26:25.300Z,28.60
2022-09-15T06:27:25.302Z,29.60
2022-09-15T06:28:25.272Z,29.20
2022-09-15T06:29:25.252Z,29.10
2022-09-15T06:30:25.259Z,29.40
2022-09-15T06:31:25.271Z,29.30
2022-09-15T06:32:25.253Z,28.70
2022-09-15T06:33:25.203Z,28.10
2022-09-15T06:34:25.190Z,30.40
2022-09-15T06:35:25.171Z,28.70
2022-09-15T06:36:25.163Z,30.20
2022-09-15T06:37:25.164Z,29.30
2022-09-15T06:38:25.135Z,29.80
2022-09-15T06:39:25.115Z,29.00
2022-09-15T06:40:25.227Z,29.50
2022-09-15T06:41:25.119Z,29.70
2022-09-15T06:42:25.095Z,30.00
2022-09-15T06:43:25.065Z,28.60
2022-09-15T06:44:25.055Z,29.10
2022-09-15T06:45:25.039Z,29.10
2022-09-15T06:46:25.187Z,28.70
2022-09-15T06:47:25.013Z,27.60
2022-09-15T06:48:25.339Z,27.50
2022-09-15T06:49:24.992Z,26.50
2022-09-15T06:50:25.033Z,25.40
2022-09-15T06:51:24.991Z,28.40
2022-09-15T06:52:24.947Z,26.30
2022-09-15T06:53:24.926Z,26.70
2022-09-15T06:54:24.920Z,26.90
2022-09-15T06:55:24.897Z,26.30
2022-09-15T06:56:24.917Z,25.00
2022-09-15T06:57:24.867Z,25.60
2022-09-15T06:58:24.867Z,24.80
2022-09-15T06:59:24.881Z,25.10
2022-09-15T07:00:24.926Z,25.80
2022-09-15T07:01:24.847Z,25.20
2022-09-15T07:02:24.957Z,24.80
2022-09-15T07:03:24.903Z,24.90
2022-09-15T07:04:24.778Z,25.30
2022-09-15T07:05:24.759Z,25.40
2022-09-15T07:06:24.799Z,24.50
2022-09-15T07:07:24.753Z,25.20
2022-09-15T07:08:24.733Z,24.40
2022-09-15T07:09:24.709Z,24.50
2022-09-15T07:10:34.219Z,25.10
2022-09-15T07:11:33.273Z,26.90
2022-09-15T07:12:24.673Z,25.80
2022-09-15T07:13:24.673Z,25.60
2022-09-15T07:14:24.645Z,24.90
2022-09-15T07:15:24.641Z,24.40
2022-09-15T07:16:24.702Z,24.60
2022-09-15T07:17:24.602Z,24.80
2022-09-15T07:18:24.585Z,24.50
2022-09-15T07:19:24.572Z,24.70
2022-09-15T07:20:24.676Z,24.40
2022-09-15T07:21:24.586Z,25.00
2022-09-15T07:22:24.544Z,25.60
2022-09-15T07:23:24.528Z,23.90
2022-09-15T07:24:24.513Z,24.10
2022-09-15T07:25:24.497Z,26.00
2022-09-15T07:26:24.506Z,25.20
2022-09-15T07:27:24.467Z,24.80
2022-09-15T07:28:24.454Z,22.60
2022-09-15T07:29:24.443Z,23.60
2022-09-15T07:30:24.485Z,24.50
2022-09-15T07:31:24.496Z,24.30
2022-09-15T07:32:24.408Z,24.70
2022-09-15T07:33:24.419Z,23.70
2022-09-15T07:34:24.368Z,23.70
2022-09-15T07:35:24.352Z,24.20
2022-09-15T07:36:24.378Z,22.60
2022-09-15T07:37:24.318Z,22.50
2022-09-15T07:38:24.319Z,23.80
2022-09-15T07:39:24.301Z,23.80
2022-09-15T07:43:13.135Z,22.10
2022-09-15T07:44:13.087Z,21.80
2022-09-15T07:45:13.077Z,22.50
2022-09-15T07:46:13.106Z,21.20
2022-09-15T07:47:13.076Z,21.20
2022-09-15T07:48:13.035Z,22.50
2022-09-15T07:49:13.057Z,20.30
2022-09-15T07:50:13.005Z,20.60
2022-09-15T07:51:12.993Z,21.40
2022-09-15T07:52:13.017Z,20.90
2022-09-15T07:53:12.972Z,20.30
2022-09-15T07:54:12.956Z,20.40
2022-09-15T07:55:12.945Z,21.20
2022-09-15T07:56:12.919Z,20.90
2022-09-15T07:57:12.957Z,20.80
2022-09-15T07:58:12.896Z,20.60
2022-09-15T07:59:12.906Z,21.20
2022-09-15T08:00:12.902Z,20.80
2022-09-15T08:01:22.537Z,21.20
2022-09-15T08:02:12.906Z,21.20
2022-09-15T08:06:08.609Z,19.40
2022-09-15T08:10:04.013Z,18.40
2022-09-15T08:13:11.434Z,18.10
2022-09-15T08:15:50.603Z,17.00
2022-09-15T08:16:58.121Z,16.80
2022-09-15T08:26:32.394Z,16.00
2022-09-15T08:27:32.357Z,16.10
2022-09-15T08:28:32.363Z,14.90
2022-09-15T08:29:32.335Z,15.80
2022-09-15T08:30:32.320Z,15.40
2022-09-15T08:31:32.435Z,15.20
2022-09-15T08:32:32.289Z,14.70
2022-09-15T08:33:32.275Z,14.90
2022-09-15T08:34:32.256Z,14.00
2022-09-15T08:35:32.246Z,13.20
2022-09-15T08:36:32.257Z,13.20
2022-09-15T08:37:32.216Z,13.10
2022-09-15T08:38:32.197Z,13.00
2022-09-15T08:39:32.212Z,13.80
2022-09-15T08:40:32.222Z,13.20
2022-09-15T08:41:32.195Z,14.10
2022-09-15T08:42:32.148Z,14.00
2022-09-15T08:43:32.139Z,13.40
2022-09-15T08:44:32.133Z,13.70
2022-09-15T08:45:32.108Z,15.70
2022-09-15T08:46:32.186Z,15.30
2022-09-15T08:47:32.099Z,14.50
2022-09-15T08:48:32.060Z,14.40
2022-09-15T08:53:52.996Z,13.30
2022-09-15T08:54:52.794Z,13.30
2022-09-15T08:55:52.785Z,13.40
2022-09-15T08:57:00.370Z,13.80
